Sunday, July 22, 2018, 10:33 AM EDT
Back to Local

KBML, Berlin Municipal Airport

Location: Milan, NH, United States Lat: 44.583
Local Time: 10:33 AM EDT (14:33 GMT) Lon: -71.183
Time Zone: US/Eastern Elev: 1158 ft

Show me the last for .
Show Decoded

2018-07-22 09:52 METAR KBML 221352Z AUTO 00000KT 10SM FEW048 SCT080 BKN100 18/14 A3019 RMK AO2
                 SLP221 T01780139 =
2018-07-22 08:52 METAR KBML 221252Z AUTO 00000KT 10SM BKN055 17/13 A3018 RMK AO2 SLP218 T01720133
                 =
2018-07-22 07:52 METAR KBML 221152Z AUTO 35005KT 10SM SCT110 17/12 A3017 RMK AO2 SLP215 T01670122
                 10167 20072 51005 =
2018-07-22 06:52 METAR KBML 221052Z AUTO 00000KT 10SM CLR 12/11 A3017 RMK AO2 SLP214 T01170106 =
2018-07-22 05:52 METAR KBML 220952Z AUTO 00000KT 10SM CLR 08/08 A3016 RMK AO2 SLP215 T00830078 =
2018-07-22 04:52 METAR KBML 220852Z AUTO 00000KT 10SM CLR 09/08 A3016 RMK AO2 SLP211 T00940083
                 55000 =
2018-07-22 03:52 METAR KBML 220752Z AUTO 00000KT 10SM FEW001 08/07 A3015 RMK AO2 SLP210 T00830072
                 =
2018-07-22 03:34 METAR KBML 220734Z AUTO 00000KT 10SM SCT001 08/08 A3016 RMK AO2 T00830078 =
2018-07-22 02:52 METAR KBML 220652Z AUTO 00000KT 10SM CLR 09/08 A3015 RMK AO2 SLP208 T00890083 =
2018-07-22 01:52 METAR KBML 220552Z AUTO 33003KT 10SM CLR 10/09 A3016 RMK AO2 SLP210 T01000094
                 10217 20094 56006 =
2018-07-22 00:52 METAR KBML 220452Z AUTO 00000KT 10SM CLR 12/11 A3016 RMK AO2 SLP211 T01170111
                 402830089 =
2018-07-21 23:52 METAR KBML 220352Z AUTO 00000KT 10SM CLR 14/11 A3017 RMK AO2 SLP213 T01390111 =
2018-07-21 22:52 METAR KBML 220252Z AUTO 00000KT 10SM CLR 14/12 A3017 RMK AO2 SLP216 T01390122
                 51013 =
2018-07-21 21:52 METAR KBML 220152Z AUTO 15006KT 10SM CLR 19/12 A3017 RMK AO2 SLP215 T01890122 =
2018-07-21 20:52 METAR KBML 220052Z AUTO 14008KT 10SM CLR 19/12 A3015 RMK AO2 SLP209 T01940122 =
2018-07-21 19:52 METAR KBML 212352Z AUTO 14008KT 10SM CLR 22/11 A3013 RMK AO2 SLP203 T02170111
                 10283 20217 53003 =
2018-07-21 18:52 METAR KBML 212252Z AUTO 14008KT 10SM CLR 25/12 A3013 RMK AO2 SLP201 T02500117 =
2018-07-21 17:52 METAR KBML 212152Z AUTO 14008KT 10SM CLR 26/11 A3013 RMK AO2 SLP200 T02610106 =
2018-07-21 16:52 METAR KBML 212052Z AUTO 15009KT 10SM CLR 27/12 A3013 RMK AO2 SLP200 T02720117
                 56009 =
2018-07-21 15:52 METAR KBML 211952Z AUTO 15006KT 10SM CLR 27/11 A3013 RMK AO2 SLP202 T02720106 =
2018-07-21 14:52 METAR KBML 211852Z AUTO 18009KT 140V210 10SM CLR 28/10 A3014 RMK AO2 SLP204
                 T02780100 =
2018-07-21 13:52 METAR KBML 211752Z AUTO 14008KT 10SM CLR 28/08 A3015 RMK AO2 SLP208 T02780078
                 10278 20133 56008 =
2018-07-21 12:52 METAR KBML 211652Z AUTO 15006KT 10SM CLR 27/08 A3016 RMK AO2 SLP210 T02670083 =
2018-07-21 11:52 METAR KBML 211552Z AUTO 11003KT 10SM CLR 26/11 A3016 RMK AO2 SLP212 T02610111 =
2018-07-21 10:52 METAR KBML 211452Z AUTO 22004KT 10SM CLR 24/13 A3018 RMK AO2 SLP216 T02440128
                 56009 =

Support USWX by starting your Amazon purchase here.